sensor_id;sensor_type;location;lat;lon;timestamp;pressure;altitude;pressure_sealevel;temperature;humidity
40946;BME280;55635;50.264;11.918;2023-03-04T00:01:56;96037.81;;;1.19;74.92
40946;BME280;55635;50.264;11.918;2023-03-04T00:04:37;96039.13;;;1.24;74.68
40946;BME280;55635;50.264;11.918;2023-03-04T00:07:18;96020.97;;;1.12;74.81
40946;BME280;55635;50.264;11.918;2023-03-04T00:09:59;96037.44;;;1.23;75.56
40946;BME280;55635;50.264;11.918;2023-03-04T00:12:40;96031.75;;;1.18;75.57
40946;BME280;55635;50.264;11.918;2023-03-04T00:15:21;96036.97;;;1.29;75.03
40946;BME280;55635;50.264;11.918;2023-03-04T00:18:02;96035.34;;;1.28;75.32
40946;BME280;55635;50.264;11.918;2023-03-04T00:20:43;96034.25;;;1.31;75.15
40946;BME280;55635;50.264;11.918;2023-03-04T00:23:24;96039.13;;;1.35;75.47
40946;BME280;55635;50.264;11.918;2023-03-04T00:26:06;96037.22;;;1.26;75.99
40946;BME280;55635;50.264;11.918;2023-03-04T00:28:49;96038.88;;;1.38;75.58
40946;BME280;55635;50.264;11.918;2023-03-04T00:31:30;96027.97;;;1.22;76.00
40946;BME280;55635;50.264;11.918;2023-03-04T00:34:11;96033.44;;;1.30;75.53
40946;BME280;55635;50.264;11.918;2023-03-04T00:36:52;96024.91;;;1.28;75.99
40946;BME280;55635;50.264;11.918;2023-03-04T00:39:33;96022.59;;;1.35;76.34
40946;BME280;55635;50.264;11.918;2023-03-04T00:42:14;96017.06;;;1.28;76.20
40946;BME280;55635;50.264;11.918;2023-03-04T00:44:56;96023.44;;;1.35;76.52
40946;BME280;55635;50.264;11.918;2023-03-04T00:47:37;96017.97;;;1.38;76.10
40946;BME280;55635;50.264;11.918;2023-03-04T00:50:21;96011.69;;;1.41;76.52
40946;BME280;55635;50.264;11.918;2023-03-04T00:53:02;96016.56;;;1.45;76.43
40946;BME280;55635;50.264;11.918;2023-03-04T00:55:44;96007.06;;;1.44;76.72
40946;BME280;55635;50.264;11.918;2023-03-04T00:58:25;96006.69;;;1.38;77.71
40946;BME280;55635;50.264;11.918;2023-03-04T01:01:06;96000.88;;;1.45;76.64
40946;BME280;55635;50.264;11.918;2023-03-04T01:03:48;95998.06;;;1.37;77.26
40946;BME280;55635;50.264;11.918;2023-03-04T01:06:29;95999.13;;;1.46;77.16
40946;BME280;55635;50.264;11.918;2023-03-04T01:09:10;95999.81;;;1.59;76.94
40946;BME280;55635;50.264;11.918;2023-03-04T01:11:51;95995.88;;;1.53;77.03
40946;BME280;55635;50.264;11.918;2023-03-04T01:14:32;95983.44;;;1.46;77.54
40946;BME280;55635;50.264;11.918;2023-03-04T01:17:14;95986.16;;;1.44;77.98
40946;BME280;55635;50.264;11.918;2023-03-04T01:19:56;95993.16;;;1.44;78.07
40946;BME280;55635;50.264;11.918;2023-03-04T01:22:37;95989.63;;;1.56;77.24
40946;BME280;55635;50.264;11.918;2023-03-04T01:25:18;95975.72;;;1.44;77.76
40946;BME280;55635;50.264;11.918;2023-03-04T01:27:59;95979.28;;;1.32;78.31
40946;BME280;55635;50.264;11.918;2023-03-04T01:30:43;95973.22;;;1.43;77.83
40946;BME280;55635;50.264;11.918;2023-03-04T01:33:24;95972.41;;;1.42;78.00
40946;BME280;55635;50.264;11.918;2023-03-04T01:36:05;95970.25;;;1.47;78.34
40946;BME280;55635;50.264;11.918;2023-03-04T01:38:47;95967.75;;;1.35;78.33
40946;BME280;55635;50.264;11.918;2023-03-04T01:41:27;95962.78;;;1.32;78.54
40946;BME280;55635;50.264;11.918;2023-03-04T01:44:10;95946.16;;;1.33;78.69
40946;BME280;55635;50.264;11.918;2023-03-04T01:46:53;95948.44;;;1.26;78.86
40946;BME280;55635;50.264;11.918;2023-03-04T01:49:35;95954.38;;;1.17;79.18
40946;BME280;55635;50.264;11.918;2023-03-04T01:52:16;95944.06;;;1.16;79.25
40946;BME280;55635;50.264;11.918;2023-03-04T01:54:57;95941.19;;;1.07;79.84
40946;BME280;55635;50.264;11.918;2023-03-04T01:57:39;95944.66;;;1.08;79.80
40946;BME280;55635;50.264;11.918;2023-03-04T02:00:32;95947.50;;;1.27;79.50
40946;BME280;55635;50.264;11.918;2023-03-04T02:03:17;95936.34;;;1.25;79.35
40946;BME280;55635;50.264;11.918;2023-03-04T02:06:01;95937.00;;;1.38;78.61
40946;BME280;55635;50.264;11.918;2023-03-04T02:08:42;95932.28;;;1.32;78.64
40946;BME280;55635;50.264;11.918;2023-03-04T02:11:23;95936.22;;;1.27;78.24
40946;BME280;55635;50.264;11.918;2023-03-04T02:14:05;95935.41;;;1.15;78.65
40946;BME280;55635;50.264;11.918;2023-03-04T02:16:48;95924.69;;;1.29;77.86
40946;BME280;55635;50.264;11.918;2023-03-04T02:22:26;95921.88;;;0.77;80.49
40946;BME280;55635;50.264;11.918;2023-03-04T02:25:13;95914.78;;;0.79;80.56
40946;BME280;55635;50.264;11.918;2023-03-04T02:27:57;95914.78;;;0.79;80.56
40946;BME280;55635;50.264;11.918;2023-03-04T02:30:38;95916.31;;;1.03;79.75
40946;BME280;55635;50.264;11.918;2023-03-04T02:33:19;95910.00;;;0.95;80.02
40946;BME280;55635;50.264;11.918;2023-03-04T02:36:00;95915.94;;;1.08;80.09
40946;BME280;55635;50.264;11.918;2023-03-04T02:38:42;95894.47;;;1.04;79.82
40946;BME280;55635;50.264;11.918;2023-03-04T02:41:25;95904.06;;;1.15;79.85
40946;BME280;55635;50.264;11.918;2023-03-04T02:44:22;95907.03;;;1.22;80.10
40946;BME280;55635;50.264;11.918;2023-03-04T02:47:08;95887.19;;;1.30;79.31
40946;BME280;55635;50.264;11.918;2023-03-04T02:49:50;95894.06;;;1.31;79.21
40946;BME280;55635;50.264;11.918;2023-03-04T02:52:31;95899.91;;;1.24;79.07
40946;BME280;55635;50.264;11.918;2023-03-04T02:55:12;95897.03;;;1.27;78.95
40946;BME280;55635;50.264;11.918;2023-03-04T02:57:53;95901.06;;;1.20;79.29
40946;BME280;55635;50.264;11.918;2023-03-04T03:00:35;95872.78;;;0.82;80.30
40946;BME280;55635;50.264;11.918;2023-03-04T03:03:17;95894.22;;;1.07;80.77
40946;BME280;55635;50.264;11.918;2023-03-04T03:05:58;95888.75;;;1.10;80.31
40946;BME280;55635;50.264;11.918;2023-03-04T03:08:40;95882.31;;;1.26;79.90
40946;BME280;55635;50.264;11.918;2023-03-04T03:11:21;95877.53;;;1.42;78.75
40946;BME280;55635;50.264;11.918;2023-03-04T03:14:02;95885.97;;;1.45;79.01
40946;BME280;55635;50.264;11.918;2023-03-04T03:16:44;95881.56;;;1.46;78.83
40946;BME280;55635;50.264;11.918;2023-03-04T03:19:25;95881.22;;;1.39;79.34
40946;BME280;55635;50.264;11.918;2023-03-04T03:22:07;95872.91;;;1.45;78.77
40946;BME280;55635;50.264;11.918;2023-03-04T03:24:49;95875.97;;;1.50;78.67
40946;BME280;55635;50.264;11.918;2023-03-04T03:27:30;95876.59;;;1.32;79.51
40946;BME280;55635;50.264;11.918;2023-03-04T03:30:13;95868.69;;;1.65;78.37
40946;BME280;55635;50.264;11.918;2023-03-04T03:32:54;95869.38;;;1.67;78.16
40946;BME280;55635;50.264;11.918;2023-03-04T03:35:36;95871.31;;;1.86;77.43
40946;BME280;55635;50.264;11.918;2023-03-04T03:38:17;95867.69;;;1.77;77.69
40946;BME280;55635;50.264;11.918;2023-03-04T03:40:58;95859.53;;;1.59;78.29
40946;BME280;55635;50.264;11.918;2023-03-04T03:43:39;95869.78;;;1.83;77.79
40946;BME280;55635;50.264;11.918;2023-03-04T03:46:20;95873.28;;;1.73;77.89
40946;BME280;55635;50.264;11.918;2023-03-04T03:49:01;95864.25;;;1.65;78.36
40946;BME280;55635;50.264;11.918;2023-03-04T03:51:42;95881.00;;;1.74;78.82
40946;BME280;55635;50.264;11.918;2023-03-04T03:54:24;95871.78;;;1.59;78.55
40946;BME280;55635;50.264;11.918;2023-03-04T03:57:05;95880.09;;;1.85;78.27
40946;BME280;55635;50.264;11.918;2023-03-04T03:59:46;95872.56;;;1.71;78.68
40946;BME280;55635;50.264;11.918;2023-03-04T04:02:27;95875.53;;;1.77;78.52
40946;BME280;55635;50.264;11.918;2023-03-04T04:05:09;95875.22;;;1.91;77.78
40946;BME280;55635;50.264;11.918;2023-03-04T04:07:52;95878.25;;;1.76;77.95
40946;BME280;55635;50.264;11.918;2023-03-04T04:10:33;95873.53;;;1.70;78.31
40946;BME280;55635;50.264;11.918;2023-03-04T04:13:14;95881.84;;;1.95;77.69
40946;BME280;55635;50.264;11.918;2023-03-04T04:15:55;95880.25;;;2.04;77.54
40946;BME280;55635;50.264;11.918;2023-03-04T04:18:37;95875.41;;;1.99;77.40
40946;BME280;55635;50.264;11.918;2023-03-04T04:21:18;95876.91;;;2.02;77.50
40946;BME280;55635;50.264;11.918;2023-03-04T04:23:59;95873.88;;;1.97;77.43
40946;BME280;55635;50.264;11.918;2023-03-04T04:26:41;95870.16;;;1.99;77.25
40946;BME280;55635;50.264;11.918;2023-03-04T04:29:22;95875.97;;;2.03;77.01
40946;BME280;55635;50.264;11.918;2023-03-04T04:32:04;95869.53;;;2.07;76.58
40946;BME280;55635;50.264;11.918;2023-03-04T04:34:45;95859.63;;;1.90;77.11
40946;BME280;55635;50.264;11.918;2023-03-04T04:37:26;95858.75;;;2.00;76.98
40946;BME280;55635;50.264;11.918;2023-03-04T04:40:07;95855.53;;;2.08;76.93
40946;BME280;55635;50.264;11.918;2023-03-04T04:42:49;95857.28;;;1.87;77.21
40946;BME280;55635;50.264;11.918;2023-03-04T04:45:30;95862.56;;;1.96;76.56
40946;BME280;55635;50.264;11.918;2023-03-04T04:48:11;95865.72;;;2.11;76.86
40946;BME280;55635;50.264;11.918;2023-03-04T04:50:55;95864.75;;;2.12;76.53
40946;BME280;55635;50.264;11.918;2023-03-04T04:53:37;95859.28;;;1.94;76.49
40946;BME280;55635;50.264;11.918;2023-03-04T04:56:22;95855.06;;;2.03;76.42
40946;BME280;55635;50.264;11.918;2023-03-04T04:59:06;95862.41;;;2.09;76.52
40946;BME280;55635;50.264;11.918;2023-03-04T05:01:48;95854.63;;;1.98;76.59
40946;BME280;55635;50.264;11.918;2023-03-04T05:04:29;95860.72;;;1.87;76.86
40946;BME280;55635;50.264;11.918;2023-03-04T05:07:10;95866.72;;;1.99;76.77
40946;BME280;55635;50.264;11.918;2023-03-04T05:09:51;95867.19;;;2.25;76.36
40946;BME280;55635;50.264;11.918;2023-03-04T05:12:33;95868.91;;;2.35;75.65
40946;BME280;55635;50.264;11.918;2023-03-04T05:15:14;95868.59;;;2.29;75.50
40946;BME280;55635;50.264;11.918;2023-03-04T05:17:54;95877.00;;;2.32;75.57
40946;BME280;55635;50.264;11.918;2023-03-04T05:20:37;95872.59;;;2.33;75.26
40946;BME280;55635;50.264;11.918;2023-03-04T05:23:18;95878.03;;;2.41;75.60
40946;BME280;55635;50.264;11.918;2023-03-04T05:26:00;95875.19;;;2.33;75.34
40946;BME280;55635;50.264;11.918;2023-03-04T05:28:42;95878.13;;;2.39;75.50
40946;BME280;55635;50.264;11.918;2023-03-04T05:31:23;95872.63;;;2.42;75.47
40946;BME280;55635;50.264;11.918;2023-03-04T05:34:04;95883.38;;;2.39;75.58
40946;BME280;55635;50.264;11.918;2023-03-04T05:36:45;95878.44;;;2.46;75.68
40946;BME280;55635;50.264;11.918;2023-03-04T05:39:27;95877.81;;;2.53;75.07
40946;BME280;55635;50.264;11.918;2023-03-04T05:42:08;95877.81;;;2.53;74.71
40946;BME280;55635;50.264;11.918;2023-03-04T05:44:49;95878.13;;;2.60;75.18
40946;BME280;55635;50.264;11.918;2023-03-04T05:47:29;95879.13;;;2.38;75.57
40946;BME280;55635;50.264;11.918;2023-03-04T05:50:11;95874.84;;;2.16;75.53
40946;BME280;55635;50.264;11.918;2023-03-04T05:52:52;95872.97;;;2.28;75.51
40946;BME280;55635;50.264;11.918;2023-03-04T05:55:33;95877.88;;;2.42;75.14
40946;BME280;55635;50.264;11.918;2023-03-04T05:58:15;95880.75;;;2.39;75.12
40946;BME280;55635;50.264;11.918;2023-03-04T06:00:59;95884.13;;;2.30;75.40
40946;BME280;55635;50.264;11.918;2023-03-04T06:03:40;95881.06;;;2.46;75.24
40946;BME280;55635;50.264;11.918;2023-03-04T06:06:23;95885.25;;;2.58;74.49
40946;BME280;55635;50.264;11.918;2023-03-04T06:09:04;95886.31;;;2.46;75.15
40946;BME280;55635;50.264;11.918;2023-03-04T06:11:45;95876.56;;;2.57;74.76
40946;BME280;55635;50.264;11.918;2023-03-04T06:14:26;95879.50;;;2.64;74.46
40946;BME280;55635;50.264;11.918;2023-03-04T06:17:07;95886.84;;;2.70;74.23
40946;BME280;55635;50.264;11.918;2023-03-04T06:19:48;95887.34;;;2.64;74.36
40946;BME280;55635;50.264;11.918;2023-03-04T06:22:29;95891.69;;;2.74;74.14
40946;BME280;55635;50.264;11.918;2023-03-04T06:25:10;95893.53;;;2.84;73.88
40946;BME280;55635;50.264;11.918;2023-03-04T06:27:51;95890.13;;;2.93;73.20
40946;BME280;55635;50.264;11.918;2023-03-04T06:30:33;95896.66;;;2.78;73.17
40946;BME280;55635;50.264;11.918;2023-03-04T06:33:14;95889.75;;;2.77;72.86
40946;BME280;55635;50.264;11.918;2023-03-04T06:35:56;95899.97;;;2.80;72.91
40946;BME280;55635;50.264;11.918;2023-03-04T06:38:37;95888.09;;;2.75;72.69
40946;BME280;55635;50.264;11.918;2023-03-04T06:41:18;95901.53;;;2.92;72.73
40946;BME280;55635;50.264;11.918;2023-03-04T06:43:59;95898.13;;;3.01;72.41
40946;BME280;55635;50.264;11.918;2023-03-04T06:46:40;95904.31;;;2.90;72.32
40946;BME280;55635;50.264;11.918;2023-03-04T06:49:28;95906.47;;;2.85;72.76
40946;BME280;55635;50.264;11.918;2023-03-04T06:56:35;95895.88;;;2.87;72.54
40946;BME280;55635;50.264;11.918;2023-03-04T06:59:16;95906.00;;;3.01;72.48
40946;BME280;55635;50.264;11.918;2023-03-04T07:01:57;95909.47;;;3.11;72.38
40946;BME280;55635;50.264;11.918;2023-03-04T07:04:38;95910.28;;;3.02;72.06
40946;BME280;55635;50.264;11.918;2023-03-04T07:07:19;95915.25;;;3.05;72.23
40946;BME280;55635;50.264;11.918;2023-03-04T07:10:00;95916.09;;;3.05;72.22
40946;BME280;55635;50.264;11.918;2023-03-04T07:12:41;95910.75;;;2.86;72.14
40946;BME280;55635;50.264;11.918;2023-03-04T07:15:23;95922.66;;;3.00;72.41
40946;BME280;55635;50.264;11.918;2023-03-04T07:18:04;95913.31;;;3.07;71.87
40946;BME280;55635;50.264;11.918;2023-03-04T07:20:45;95910.47;;;3.19;71.77
40946;BME280;55635;50.264;11.918;2023-03-04T07:23:26;95922.63;;;3.20;71.17
40946;BME280;55635;50.264;11.918;2023-03-04T07:26:07;95905.38;;;3.18;71.05
40946;BME280;55635;50.264;11.918;2023-03-04T07:28:48;95903.63;;;2.98;71.60
40946;BME280;55635;50.264;11.918;2023-03-04T07:31:32;95909.47;;;3.11;71.66
40946;BME280;55635;50.264;11.918;2023-03-04T07:34:14;95905.38;;;3.18;71.09
40946;BME280;55635;50.264;11.918;2023-03-04T07:36:55;95907.00;;;3.19;70.56
40946;BME280;55635;50.264;11.918;2023-03-04T07:39:39;95918.75;;;3.15;70.87
40946;BME280;55635;50.264;11.918;2023-03-04T07:42:20;95899.72;;;2.83;70.79
40946;BME280;55635;50.264;11.918;2023-03-04T07:45:08;95917.16;;;3.03;70.94
40946;BME280;55635;50.264;11.918;2023-03-04T07:47:50;95906.41;;;3.06;71.11
40946;BME280;55635;50.264;11.918;2023-03-04T07:50:31;95924.38;;;3.10;71.07
40946;BME280;55635;50.264;11.918;2023-03-04T07:53:12;95928.25;;;3.16;70.92
40946;BME280;55635;50.264;11.918;2023-03-04T07:55:53;95921.25;;;3.26;70.75
40946;BME280;55635;50.264;11.918;2023-03-04T07:58:34;95925.19;;;3.11;71.28
40946;BME280;55635;50.264;11.918;2023-03-04T08:01:19;95904.41;;;3.19;70.69
40946;BME280;55635;50.264;11.918;2023-03-04T08:04:02;95919.75;;;3.43;70.55
40946;BME280;55635;50.264;11.918;2023-03-04T08:06:44;95911.50;;;3.38;70.02
40946;BME280;55635;50.264;11.918;2023-03-04T08:09:25;95908.19;;;3.55;69.76
40946;BME280;55635;50.264;11.918;2023-03-04T08:12:06;95913.53;;;3.34;70.03
40946;BME280;55635;50.264;11.918;2023-03-04T08:14:47;95912.16;;;3.40;69.94
40946;BME280;55635;50.264;11.918;2023-03-04T08:17:28;95913.31;;;3.56;70.05
40946;BME280;55635;50.264;11.918;2023-03-04T08:20:10;95912.16;;;3.40;70.38
40946;BME280;55635;50.264;11.918;2023-03-04T08:22:51;95919.66;;;3.44;70.12
40946;BME280;55635;50.264;11.918;2023-03-04T08:25:32;95922.16;;;3.55;70.00
40946;BME280;55635;50.264;11.918;2023-03-04T08:28:14;95923.44;;;3.80;69.81
40946;BME280;55635;50.264;11.918;2023-03-04T08:30:55;95922.59;;;3.70;69.11
40946;BME280;55635;50.264;11.918;2023-03-04T08:33:36;95920.81;;;3.80;69.66
40946;BME280;55635;50.264;11.918;2023-03-04T08:36:17;95925.22;;;3.60;69.38
40946;BME280;55635;50.264;11.918;2023-03-04T08:38:58;95920.13;;;3.78;69.48
40946;BME280;55635;50.264;11.918;2023-03-04T08:41:39;95921.94;;;3.87;69.38
40946;BME280;55635;50.264;11.918;2023-03-04T08:44:20;95916.13;;;3.83;69.41
40946;BME280;55635;50.264;11.918;2023-03-04T08:47:01;95916.63;;;3.58;70.34
40946;BME280;55635;50.264;11.918;2023-03-04T08:49:42;95917.50;;;3.78;69.81
40946;BME280;55635;50.264;11.918;2023-03-04T08:52:23;95917.47;;;3.68;69.91
40946;BME280;55635;50.264;11.918;2023-03-04T08:55:05;95922.59;;;3.60;70.23
40946;BME280;55635;50.264;11.918;2023-03-04T08:57:45;95925.09;;;3.91;69.44
40946;BME280;55635;50.264;11.918;2023-03-04T09:00:27;95924.81;;;3.74;70.17
40946;BME280;55635;50.264;11.918;2023-03-04T09:03:10;95928.09;;;3.76;69.89
40946;BME280;55635;50.264;11.918;2023-03-04T09:05:51;95929.38;;;3.92;70.06
40946;BME280;55635;50.264;11.918;2023-03-04T09:08:35;95924.56;;;4.06;69.42
40946;BME280;55635;50.264;11.918;2023-03-04T09:11:16;95930.34;;;4.19;68.99
40946;BME280;55635;50.264;11.918;2023-03-04T09:13:57;95918.50;;;4.25;68.33
40946;BME280;55635;50.264;11.918;2023-03-04T09:16:38;95922.91;;;4.34;68.74
40946;BME280;55635;50.264;11.918;2023-03-04T09:19:19;95924.53;;;4.35;68.59
40946;BME280;55635;50.264;11.918;2023-03-04T09:22:00;95917.22;;;4.48;68.32
40946;BME280;55635;50.264;11.918;2023-03-04T09:24:41;95913.16;;;4.63;67.93
40946;BME280;55635;50.264;11.918;2023-03-04T09:27:22;95906.16;;;4.35;68.28
40946;BME280;55635;50.264;11.918;2023-03-04T09:30:04;95907.66;;;4.47;68.71
40946;BME280;55635;50.264;11.918;2023-03-04T09:32:45;95906.03;;;4.46;68.33
40946;BME280;55635;50.264;11.918;2023-03-04T09:35:27;95903.69;;;4.33;68.58
40946;BME280;55635;50.264;11.918;2023-03-04T09:38:10;95908.78;;;4.35;68.69
40946;BME280;55635;50.264;11.918;2023-03-04T09:40:51;95904.34;;;4.55;68.24
40946;BME280;55635;50.264;11.918;2023-03-04T09:43:32;95901.56;;;4.66;67.89
40946;BME280;55635;50.264;11.918;2023-03-04T09:46:28;95909.03;;;4.70;68.53
40946;BME280;55635;50.264;11.918;2023-03-04T09:49:12;95896.34;;;4.47;69.21
40946;BME280;55635;50.264;11.918;2023-03-04T09:52:27;95910.50;;;4.82;68.12
40946;BME280;55635;50.264;11.918;2023-03-04T09:55:41;95905.72;;;4.59;68.90
40946;BME280;55635;50.264;11.918;2023-03-04T10:01:53;95908.19;;;4.70;68.62
40946;BME280;55635;50.264;11.918;2023-03-04T10:04:47;95906.50;;;4.78;68.43
40946;BME280;55635;50.264;11.918;2023-03-04T10:07:40;95909.31;;;4.67;69.12
40946;BME280;55635;50.264;11.918;2023-03-04T10:10:35;95905.13;;;4.65;69.60
40946;BME280;55635;50.264;11.918;2023-03-04T10:13:28;95899.09;;;4.64;69.36
40946;BME280;55635;50.264;11.918;2023-03-04T10:16:17;95896.88;;;4.60;69.35
40946;BME280;55635;50.264;11.918;2023-03-04T10:19:35;95899.41;;;4.98;68.78
40946;BME280;55635;50.264;11.918;2023-03-04T10:23:01;95894.78;;;5.10;68.50
40946;BME280;55635;50.264;11.918;2023-03-04T10:25:49;95898.13;;;5.02;68.22
40946;BME280;55635;50.264;11.918;2023-03-04T10:28:34;95898.09;;;5.12;67.86
40946;BME280;55635;50.264;11.918;2023-03-04T10:31:33;95895.69;;;5.18;68.45
40946;BME280;55635;50.264;11.918;2023-03-04T10:34:17;95895.19;;;5.05;67.40
40946;BME280;55635;50.264;11.918;2023-03-04T10:37:02;95895.16;;;5.15;68.02
40946;BME280;55635;50.264;11.918;2023-03-04T10:39:46;95896.13;;;5.14;67.36
40946;BME280;55635;50.264;11.918;2023-03-04T10:42:29;95892.22;;;4.90;67.04
40946;BME280;55635;50.264;11.918;2023-03-04T10:45:23;95892.13;;;4.82;67.41
40946;BME280;55635;50.264;11.918;2023-03-04T10:48:05;95900.69;;;4.75;67.79
40946;BME280;55635;50.264;11.918;2023-03-04T10:50:46;95896.06;;;4.96;68.14
40946;BME280;55635;50.264;11.918;2023-03-04T10:53:36;95887.69;;;5.20;67.53
40946;BME280;55635;50.264;11.918;2023-03-04T10:56:38;95884.78;;;5.23;67.01
40946;BME280;55635;50.264;11.918;2023-03-04T11:00:19;95880.09;;;5.17;66.24
40946;BME280;55635;50.264;11.918;2023-03-04T11:02:45;95871.06;;;5.46;65.74
40946;BME280;55635;50.264;11.918;2023-03-04T11:05:31;95866.53;;;5.84;65.90
40946;BME280;55635;50.264;11.918;2023-03-04T11:08:21;95861.72;;;6.15;64.76
40946;BME280;55635;50.264;11.918;2023-03-04T11:11:02;95863.63;;;5.87;64.73
40946;BME280;55635;50.264;11.918;2023-03-04T11:13:52;95863.50;;;5.61;64.60
40946;BME280;55635;50.264;11.918;2023-03-04T11:16:35;95852.72;;;5.37;64.87
40946;BME280;55635;50.264;11.918;2023-03-04T11:19:17;95854.41;;;5.56;64.92
40946;BME280;55635;50.264;11.918;2023-03-04T11:22:00;95853.88;;;5.52;65.15
40946;BME280;55635;50.264;11.918;2023-03-04T11:24:43;95847.25;;;5.48;65.07
40946;BME280;55635;50.264;11.918;2023-03-04T11:27:43;95847.75;;;5.34;65.39
40946;BME280;55635;50.264;11.918;2023-03-04T11:30:41;95846.38;;;5.75;65.26
40946;BME280;55635;50.264;11.918;2023-03-04T11:33:45;95844.31;;;5.96;64.62
40946;BME280;55635;50.264;11.918;2023-03-04T11:39:37;95835.78;;;5.67;64.58
40946;BME280;55635;50.264;11.918;2023-03-04T11:42:51;95848.19;;;5.74;64.29
40946;BME280;55635;50.264;11.918;2023-03-04T11:51:41;95816.03;;;5.80;62.86
40946;BME280;55635;50.264;11.918;2023-03-04T12:01:09;95823.75;;;5.46;64.63
40946;BME280;55635;50.264;11.918;2023-03-04T12:13:51;95807.44;;;5.78;64.57
40946;BME280;55635;50.264;11.918;2023-03-04T12:17:07;95809.69;;;6.09;64.38
40946;BME280;55635;50.264;11.918;2023-03-04T12:20:25;95811.88;;;5.78;63.68
40946;BME280;55635;50.264;11.918;2023-03-04T12:26:24;95806.94;;;5.92;63.30
40946;BME280;55635;50.264;11.918;2023-03-04T12:32:57;95797.75;;;5.79;62.94
40946;BME280;55635;50.264;11.918;2023-03-04T12:45:31;95784.53;;;5.88;63.34
40946;BME280;55635;50.264;11.918;2023-03-04T12:48:26;95784.91;;;5.58;63.40
40946;BME280;55635;50.264;11.918;2023-03-04T12:57:18;95780.53;;;5.67;64.37
40946;BME280;55635;50.264;11.918;2023-03-04T13:07:37;95762.66;;;5.70;63.97
40946;BME280;55635;50.264;11.918;2023-03-04T13:10:21;95760.72;;;5.55;64.38
40946;BME280;55635;50.264;11.918;2023-03-04T13:13:03;95758.22;;;5.88;64.15
40946;BME280;55635;50.264;11.918;2023-03-04T13:15:44;95755.66;;;5.96;63.67
40946;BME280;55635;50.264;11.918;2023-03-04T13:21:26;95764.50;;;6.39;62.93
40946;BME280;55635;50.264;11.918;2023-03-04T13:24:46;95757.63;;;6.20;62.85
40946;BME280;55635;50.264;11.918;2023-03-04T13:36:05;95756.25;;;5.90;64.38
40946;BME280;55635;50.264;11.918;2023-03-04T13:41:54;95748.84;;;5.68;65.16
40946;BME280;55635;50.264;11.918;2023-03-04T13:47:39;95733.78;;;5.78;64.69
40946;BME280;55635;50.264;11.918;2023-03-04T13:50:45;95740.63;;;5.54;65.77
40946;BME280;55635;50.264;11.918;2023-03-04T13:56:48;95731.44;;;5.75;65.40
40946;BME280;55635;50.264;11.918;2023-03-04T13:59:54;95739.03;;;5.78;65.73
40946;BME280;55635;50.264;11.918;2023-03-04T14:02:35;95730.03;;;5.63;65.63
40946;BME280;55635;50.264;11.918;2023-03-04T14:05:16;95728.03;;;5.39;66.89
40946;BME280;55635;50.264;11.918;2023-03-04T14:08:18;95732.16;;;5.42;67.20
40946;BME280;55635;50.264;11.918;2023-03-04T14:10:59;95729.69;;;5.40;67.61
40946;BME280;55635;50.264;11.918;2023-03-04T14:13:40;95730.97;;;5.36;67.28
40946;BME280;55635;50.264;11.918;2023-03-04T14:16:27;95719.72;;;5.44;67.78
40946;BME280;55635;50.264;11.918;2023-03-04T14:19:18;95723.22;;;5.53;67.77
40946;BME280;55635;50.264;11.918;2023-03-04T14:22:02;95715.19;;;5.36;67.66
40946;BME280;55635;50.264;11.918;2023-03-04T14:28:16;95715.13;;;5.46;67.02
40946;BME280;55635;50.264;11.918;2023-03-04T14:30:58;95720.13;;;5.57;67.18
40946;BME280;55635;50.264;11.918;2023-03-04T14:33:44;95717.28;;;5.68;66.94
40946;BME280;55635;50.264;11.918;2023-03-04T14:36:26;95726.44;;;5.64;67.33
40946;BME280;55635;50.264;11.918;2023-03-04T14:39:15;95709.16;;;5.62;67.22
40946;BME280;55635;50.264;11.918;2023-03-04T14:42:06;95713.56;;;5.79;67.20
40946;BME280;55635;50.264;11.918;2023-03-04T14:44:49;95710.88;;;5.71;67.26
40946;BME280;55635;50.264;11.918;2023-03-04T14:47:41;95710.41;;;5.75;67.06
40946;BME280;55635;50.264;11.918;2023-03-04T14:50:25;95708.16;;;5.63;67.74
40946;BME280;55635;50.264;11.918;2023-03-04T14:56:07;95697.44;;;5.99;66.84
40946;BME280;55635;50.264;11.918;2023-03-04T14:58:55;95694.94;;;5.72;67.80
40946;BME280;55635;50.264;11.918;2023-03-04T15:01:37;95698.06;;;5.93;67.69
40946;BME280;55635;50.264;11.918;2023-03-04T15:04:19;95689.44;;;5.83;66.99
40946;BME280;55635;50.264;11.918;2023-03-04T15:07:00;95696.84;;;5.62;68.13
40946;BME280;55635;50.264;11.918;2023-03-04T15:09:41;95694.84;;;5.82;67.85
40946;BME280;55635;50.264;11.918;2023-03-04T15:12:33;95699.38;;;5.89;68.43
40946;BME280;55635;50.264;11.918;2023-03-04T15:21:02;95687.34;;;5.69;68.85
40946;BME280;55635;50.264;11.918;2023-03-04T15:23:44;95685.06;;;5.48;70.12
40946;BME280;55635;50.264;11.918;2023-03-04T15:26:25;95688.75;;;5.56;69.41
40946;BME280;55635;50.264;11.918;2023-03-04T15:29:17;95687.16;;;5.45;70.50
40946;BME280;55635;50.264;11.918;2023-03-04T15:31:58;95691.69;;;5.35;70.91
40946;BME280;55635;50.264;11.918;2023-03-04T15:34:39;95680.06;;;5.37;70.77
40946;BME280;55635;50.264;11.918;2023-03-04T15:37:26;95678.09;;;5.39;70.72
40946;BME280;55635;50.264;11.918;2023-03-04T15:43:06;95690.53;;;5.55;69.16
40946;BME280;55635;50.264;11.918;2023-03-04T15:45:51;95687.84;;;5.47;69.46
40946;BME280;55635;50.264;11.918;2023-03-04T15:48:32;95684.22;;;5.48;69.75
40946;BME280;55635;50.264;11.918;2023-03-04T15:51:16;95681.91;;;5.45;69.71
40946;BME280;55635;50.264;11.918;2023-03-04T15:53:59;95679.66;;;5.50;69.87
40946;BME280;55635;50.264;11.918;2023-03-04T15:56:40;95676.91;;;5.34;69.94
40946;BME280;55635;50.264;11.918;2023-03-04T15:59:22;95681.53;;;5.40;70.48
40946;BME280;55635;50.264;11.918;2023-03-04T16:02:20;95682.59;;;5.47;70.05
40946;BME280;55635;50.264;11.918;2023-03-04T16:05:01;95677.13;;;5.40;69.70
40946;BME280;55635;50.264;11.918;2023-03-04T16:07:46;95686.50;;;5.43;69.80
40946;BME280;55635;50.264;11.918;2023-03-04T16:10:29;95686.56;;;5.33;70.78
40946;BME280;55635;50.264;11.918;2023-03-04T16:13:20;95681.25;;;5.25;70.62